Language selection

Features

My Weather Profile Weather Topics  | 

Roes Welcome - southern half: Past 24 Hour Conditions

 

Arviat Airport

01:00 AM CST 17 November 2019
Disclaimer

This table is a summary of hourly weather conditions for the past 24 hours.
Please note that these observations might not always be representative of weather conditions over their associated marine area.

Date / Time
(CST)
Wind(knots) Conditions Visibility(km) Pressure(kPa) Air tempC) Relative humidity(%) Dew pointC) Wind Chill
17 November 2019
1:00 NW 12 Cloudy 16 101.2 -17 82 -19 -27
0:00 NW 14 Cloudy 16 101.2 -18 83 -20 -29
16 November 2019
23:00 NNW 13 Mainly Clear 16 101.2 -20 83 -22 -31
22:00 NNW 13 gust 18 Clear 16 101.1 -19 84 -21 -30
21:00 NNW 13 Clear 16 101.1 -20 84 -22 -31
20:00 NNW 12 Clear 16 101.1 -19 84 -21 -30
19:00 NW 14 Clear 16 101.2 -19 85 -21 -31
18:00 NW 13 Clear 16 101.1 -18 85 -20 -29
17:00 NW 13 Clear 16 101.0 -17 86 -19 -28
16:00 NW 11 Clear 16 101.0 -16 87 -17 -25
15:00 NW 10 Light Snow 24 100.9 -12 86 -14 -20
14:00 NW 10 Light Snow 24 100.9 -12 84 -14 -20
13:00 WNW 11 Light Snow 24 100.9 -12 83 -14 -20
12:00 W 7 Light Snow 24 100.9 -12 86 -14 -18
11:00 WSW 6 Light Snow 24 100.9 -12 86 -14 -18
10:00 WSW 8 Light Snow 24 100.9 -12 86 -14 -19
9:00 SW 9 Cloudy 24 101.0 -12 87 -14 -20
8:00 WSW 9 Light Snow 16 101.0 -13 89 -14 -20
7:00 SW 8 Light Snow 11 101.0 -13 90 -14 -20
6:00 SW 11 Light Snow 5 101.0 -13 89 -15 -22
5:00 SW 12 Light Snow 8 101.1 -13 88 -15 -22
4:00 SW 10 Light Snow 13 101.1 -12 89 -13 -20
3:00 SSW 14 Light Snow 5 101.2 -10 90 -11 -18
2:00 SW 6 Light Snow 10 101.3 -12 91 -13 -18
1:00 W 3 Light Snow 6 101.4 -13 90 -14 -16

Zoom-in to make a selection

Map of Hudson - Hudson Bay marine weather areas Arviat Airport Baker Lake Airport Chesterfield Inlet Airport Coral Harbour Airport Rankin Inlet Airport Sanikiluaq Airport Whale Cove Airport Cape Dorset Airport Iqaluit Airport Wager Bay Kimmirut Airport Churchill Airport Fort Severn Airport Peawanuck Airport Moosonee Airport Eastmain Airport La Grande Rivière Airport Waskaganish Airport Wemindji Airport Akulivik Airport Inukjuak Airport Ivujivik Airport Kuujjuarapik Airport Puvirnituq Airport Umiujaq Airport Aupaluk Airport Kangiqsujuaq Airport Kangirsuk Airport Kangiqsualujjuaq Airport Kuujjuaq Airport Quaqtaq Airport Salluit Airport Tasiujaq Airport Cape Kakkiviak
Legend:
buoy Buoy
land station Land Station

Hudson - Hudson Bay Area

Another Region

What we are doing

Date modified: